Time;durP1;ratioP1;P1;durP2;ratioP2;P2;SDS_P1;SDS_P2;PMS_P1;PMS_P2;Temp;Humidity;BMP_temperature;BMP_pressure;BME280_temperature;BME280_humidity;BME280_pressure;Samples;Min_cycle;Max_cycle;Signal;HPM_P1;HPM_P2
2023/05/17 00:04:34;;;;;;;;;;;;;;;7.19;100.00;95757.47;10484027;28;1897;-71
2023/05/17 00:09:37;;;;;;;;;;;;;;;7.22;100.00;95776.50;10487011;28;1846;-70
2023/05/17 00:14:40;;;;;;;;;;;;;;;7.16;100.00;95771.38;10475444;28;1877;-70
2023/05/17 00:19:43;;;;;;;;;;;;;;;7.07;100.00;95770.22;10480819;28;1909;-69
2023/05/17 00:24:47;;;;;;;;;;;;;;;7.05;100.00;95781.13;10478230;28;2118;-72
2023/05/17 00:29:50;;;;;;;;;;;;;;;7.04;100.00;95788.34;10475089;28;2086;-75
2023/05/17 00:34:52;;;;;;;;;;;;;;;7.02;100.00;95785.13;10472965;28;2030;-73
2023/05/17 00:39:55;;;;;;;;;;;;;;;7.02;100.00;95801.16;10474841;28;4659;-70
2023/05/17 00:44:57;;;;;;;;;;;;;;;7.07;100.00;95800.41;10470199;28;2050;-70
2023/05/17 00:49:59;;;;;;;;;;;;;;;7.07;100.00;95784.38;10471473;28;1952;-74
2023/05/17 00:55:02;;;;;;;;;;;;;;;7.00;100.00;95795.25;10477595;28;1826;-72
2023/05/17 01:00:05;;;;;;;;;;;;;;;7.01;100.00;95794.19;10472602;28;2099;-72
2023/05/17 01:05:07;;;;;;;;;;;;;;;6.91;100.00;95787.94;10472541;28;1969;-72
2023/05/17 01:10:10;;;;;;;;;;;;;;;6.91;100.00;95796.75;10473639;28;1893;-72
2023/05/17 01:15:13;;;;;;;;;;;;;;;6.89;100.00;95803.41;10475872;28;2016;-72
2023/05/17 01:20:15;;;;;;;;;;;;;;;6.85;100.00;95803.09;10475708;28;1993;-71
2023/05/17 01:25:19;;;;;;;;;;;;;;;6.83;100.00;95799.88;10480411;28;1905;-70
2023/05/17 01:30:22;;;;;;;;;;;;;;;6.76;100.00;95813.41;10472608;28;1933;-71
2023/05/17 01:35:25;;;;;;;;;;;;;;;6.83;100.00;95810.56;10471479;28;1862;-71
2023/05/17 01:40:28;;;;;;;;;;;;;;;6.75;100.00;95825.16;10474315;28;4508;-72
2023/05/17 01:45:31;;;;;;;;;;;;;;;6.76;100.00;95831.31;10466915;28;1837;-72
2023/05/17 01:50:33;;;;;;;;;;;;;;;6.72;100.00;95827.50;10473074;28;2058;-71
2023/05/17 01:55:35;;;;;;;;;;;;;;;6.71;100.00;95824.03;10477866;28;1960;-71
2023/05/17 02:00:38;;;;;;;;;;;;;;;6.67;100.00;95838.13;10471669;28;1901;-72
2023/05/17 02:05:41;;;;;;;;;;;;;;;6.65;100.00;95835.69;10474772;28;1971;-72
2023/05/17 02:10:43;;;;;;;;;;;;;;;6.68;100.00;95847.75;10476724;28;1894;-72
2023/05/17 02:15:46;;;;;;;;;;;;;;;6.64;100.00;95849.31;10473874;28;1908;-75
2023/05/17 02:20:49;;;;;;;;;;;;;;;6.57;100.00;95838.81;10472192;28;1917;-72
2023/05/17 02:25:52;;;;;;;;;;;;;;;6.56;100.00;95841.72;10471797;28;1995;-72
2023/05/17 02:30:55;;;;;;;;;;;;;;;6.52;100.00;95843.25;10474750;28;1861;-72
2023/05/17 02:35:57;;;;;;;;;;;;;;;6.55;100.00;95846.22;10473368;28;2127;-72
2023/05/17 02:41:00;;;;;;;;;;;;;;;6.49;100.00;95853.41;10469810;28;4512;-71
2023/05/17 02:46:02;;;;;;;;;;;;;;;6.46;100.00;95848.53;10472240;28;1947;-72
2023/05/17 02:51:05;;;;;;;;;;;;;;;6.44;100.00;95847.16;10475661;28;1909;-70
2023/05/17 02:56:08;;;;;;;;;;;;;;;6.37;100.00;95860.69;10471864;28;1974;-72
2023/05/17 03:01:11;;;;;;;;;;;;;;;6.36;100.00;95858.25;10476452;28;2198;-70
2023/05/17 03:06:13;;;;;;;;;;;;;;;6.35;100.00;95869.97;10465428;28;1890;-70
2023/05/17 03:11:15;;;;;;;;;;;;;;;6.35;100.00;95872.66;10474971;28;1988;-71
2023/05/17 03:16:18;;;;;;;;;;;;;;;6.36;100.00;95874.25;10479361;28;1924;-71
2023/05/17 03:21:20;;;;;;;;;;;;;;;6.33;100.00;95880.91;10480140;28;1889;-71
2023/05/17 03:26:23;;;;;;;;;;;;;;;6.37;100.00;95890.06;10461634;28;1909;-73
2023/05/17 03:31:26;;;;;;;;;;;;;;;6.31;100.00;95892.91;10475524;28;1849;-70
2023/05/17 03:36:28;;;;;;;;;;;;;;;6.31;100.00;95892.91;10472330;28;2146;-71
2023/05/17 03:41:30;;;;;;;;;;;;;;;6.22;100.00;95895.16;10477065;28;4558;-71
2023/05/17 03:46:33;;;;;;;;;;;;;;;6.32;100.00;95915.88;10479463;28;2301;-73
2023/05/17 03:51:35;;;;;;;;;;;;;;;6.26;100.00;95917.66;10482231;28;1865;-71
2023/05/17 03:56:38;;;;;;;;;;;;;;;6.25;100.00;95921.38;10470554;28;2165;-72
2023/05/17 04:01:40;;;;;;;;;;;;;;;6.28;100.00;95926.22;10474274;28;1825;-71
2023/05/17 04:06:42;;;;;;;;;;;;;;;6.31;100.00;95938.28;10477144;28;1880;-71
2023/05/17 04:11:45;;;;;;;;;;;;;;;6.37;100.00;95948.00;10473109;28;1986;-71
2023/05/17 04:16:47;;;;;;;;;;;;;;;6.41;100.00;95947.25;10480028;28;1914;-71
2023/05/17 04:21:50;;;;;;;;;;;;;;;6.40;100.00;95955.50;10476406;28;2018;-72
2023/05/17 04:26:53;;;;;;;;;;;;;;;6.42;100.00;95961.41;10471690;28;1908;-71
2023/05/17 04:31:55;;;;;;;;;;;;;;;6.30;100.00;95964.16;10479359;28;1964;-71
2023/05/17 04:36:58;;;;;;;;;;;;;;;6.32;100.00;95970.06;10479593;28;2043;-71
2023/05/17 04:42:00;;;;;;;;;;;;;;;6.36;100.00;95976.56;10476776;28;4605;-71
2023/05/17 04:47:03;;;;;;;;;;;;;;;6.45;100.00;95980.44;10475898;28;1901;-75
2023/05/17 04:52:06;;;;;;;;;;;;;;;6.60;100.00;95989.72;10474043;28;1882;-70
2023/05/17 04:57:08;;;;;;;;;;;;;;;6.64;100.00;95982.88;10475674;28;1973;-70
2023/05/17 05:02:11;;;;;;;;;;;;;;;6.88;100.00;95989.66;10469955;28;2094;-70
2023/05/17 05:07:14;;;;;;;;;;;;;;;6.82;100.00;95995.97;10474458;28;1865;-73
2023/05/17 05:12:16;;;;;;;;;;;;;;;7.22;100.00;96000.28;10474923;28;2078;-72
2023/05/17 05:17:21;;;;;;;;;;;;;;;7.28;100.00;95994.75;10473317;28;2083;-71
2023/05/17 05:22:24;;;;;;;;;;;;;;;7.61;100.00;95993.03;10468336;28;1913;-71
2023/05/17 05:27:27;;;;;;;;;;;;;;;7.25;100.00;96007.78;10470362;28;1888;-76
2023/05/17 05:32:30;;;;;;;;;;;;;;;7.88;100.00;96006.44;10470164;28;2197;-73
2023/05/17 05:37:32;;;;;;;;;;;;;;;7.92;100.00;96004.09;10472270;28;1954;-69
2023/05/17 05:42:35;;;;;;;;;;;;;;;8.24;100.00;96007.66;10472155;28;4393;-69
2023/05/17 05:47:38;;;;;;;;;;;;;;;8.09;100.00;96010.97;10472599;28;1911;-71
2023/05/17 05:52:41;;;;;;;;;;;;;;;7.68;100.00;96014.25;10474267;28;1842;-73
2023/05/17 05:57:44;;;;;;;;;;;;;;;8.38;100.00;96003.53;10463761;28;1898;-73
2023/05/17 06:02:47;;;;;;;;;;;;;;;8.84;100.00;96016.50;10477684;28;1902;-73
2023/05/17 06:07:49;;;;;;;;;;;;;;;8.94;100.00;96012.03;10478023;28;1841;-73
2023/05/17 06:12:52;;;;;;;;;;;;;;;9.14;100.00;96019.41;10465514;28;1897;-73
2023/05/17 06:17:54;;;;;;;;;;;;;;;8.93;100.00;96025.69;10469197;28;1914;-72
2023/05/17 06:22:57;;;;;;;;;;;;;;;9.09;100.00;96022.03;10475356;28;1885;-73
2023/05/17 06:28:01;;;;;;;;;;;;;;;9.26;100.00;96029.16;10472319;28;1924;-73
2023/05/17 06:33:03;;;;;;;;;;;;;;;9.03;100.00;96031.13;10472005;28;2055;-71
2023/05/17 06:38:06;;;;;;;;;;;;;;;9.15;100.00;96034.44;10490056;28;1989;-73
2023/05/17 06:43:08;;;;;;;;;;;;;;;8.89;100.00;96038.00;10460811;28;4417;-72
2023/05/17 06:48:11;;;;;;;;;;;;;;;9.16;100.00;96041.44;10465986;28;1965;-72
2023/05/17 06:53:13;;;;;;;;;;;;;;;9.26;100.00;96047.91;10474660;28;1872;-72
2023/05/17 06:58:16;;;;;;;;;;;;;;;9.06;100.00;96046.72;10475497;28;1988;-72
2023/05/17 07:03:19;;;;;;;;;;;;;;;9.88;100.00;96050.69;10474116;28;1834;-71
2023/05/17 07:08:22;;;;;;;;;;;;;;;9.54;100.00;96062.84;10475789;28;2014;-71
2023/05/17 07:13:24;;;;;;;;;;;;;;;10.36;100.00;96058.66;10468774;28;1929;-73
2023/05/17 07:18:27;;;;;;;;;;;;;;;10.48;100.00;96059.22;10473618;28;1910;-73
2023/05/17 07:23:30;;;;;;;;;;;;;;;10.81;100.00;96061.44;10469499;28;1830;-72
2023/05/17 07:28:32;;;;;;;;;;;;;;;10.39;100.00;96063.50;10473805;28;2175;-72
2023/05/17 07:33:36;;;;;;;;;;;;;;;10.10;100.00;96065.78;10472381;28;1854;-76
2023/05/17 07:38:41;;;;;;;;;;;;;;;10.11;100.00;96073.59;10474761;28;1923;-71
2023/05/17 07:43:43;;;;;;;;;;;;;;;11.13;100.00;96064.94;10472271;28;4457;-70
2023/05/17 07:48:46;;;;;;;;;;;;;;;10.33;100.00;96078.81;10473283;28;1870;-71
2023/05/17 07:53:49;;;;;;;;;;;;;;;10.63;100.00;96064.66;10472122;28;1837;-72
2023/05/17 07:58:51;;;;;;;;;;;;;;;10.65;100.00;96067.88;10472046;28;1914;-73
2023/05/17 08:03:54;;;;;;;;;;;;;;;11.36;100.00;96067.88;10472485;28;1967;-73
2023/05/17 08:08:56;;;;;;;;;;;;;;;10.25;100.00;96074.75;10476349;28;1880;-72
2023/05/17 08:13:59;;;;;;;;;;;;;;;11.44;100.00;96063.81;10472638;28;1936;-73
2023/05/17 08:19:01;;;;;;;;;;;;;;;11.34;100.00;96069.22;10465981;28;2292;-73
2023/05/17 08:24:04;;;;;;;;;;;;;;;11.78;99.12;96074.81;10468795;28;2135;-72
2023/05/17 08:29:06;;;;;;;;;;;;;;;11.28;95.49;96075.69;10467819;28;1873;-72
2023/05/17 08:34:08;;;;;;;;;;;;;;;11.21;100.00;96075.97;10468094;28;1909;-71
2023/05/17 08:39:12;;;;;;;;;;;;;;;12.60;93.84;96080.69;10462492;28;1929;-72
2023/05/17 08:44:15;;;;;;;;;;;;;;;11.62;96.91;96092.88;10465000;28;4362;-72
2023/05/17 08:49:17;;;;;;;;;;;;;;;12.30;85.71;96087.03;10467398;28;1937;-74
2023/05/17 08:54:21;;;;;;;;;;;;;;;12.31;90.52;96083.25;10476665;28;1849;-72
2023/05/17 08:59:23;;;;;;;;;;;;;;;11.46;94.63;96088.59;10466132;28;1940;-71
2023/05/17 09:04:26;;;;;;;;;;;;;;;13.40;85.21;96085.78;10470166;28;1897;-70
2023/05/17 09:09:28;;;;;;;;;;;;;;;12.71;88.83;96094.91;10471884;28;1889;-73
2023/05/17 09:14:31;;;;;;;;;;;;;;;12.30;95.04;96103.22;10469544;28;1889;-75
2023/05/17 09:19:33;;;;;;;;;;;;;;;12.96;91.98;96094.75;10464776;28;2141;-73
2023/05/17 09:24:36;;;;;;;;;;;;;;;13.14;83.66;96101.38;10468425;28;2141;-72
2023/05/17 09:29:38;;;;;;;;;;;;;;;13.52;79.61;96101.63;10467479;28;1937;-72
2023/05/17 09:34:41;;;;;;;;;;;;;;;13.34;83.52;96099.63;10459470;28;1917;-72
2023/05/17 09:39:44;;;;;;;;;;;;;;;12.51;88.67;96108.50;10464831;28;4453;-70
2023/05/17 09:44:47;;;;;;;;;;;;;;;12.48;85.00;96104.50;10469017;28;1961;-71
2023/05/17 09:49:50;;;;;;;;;;;;;;;12.63;88.28;96100.91;10468370;28;1873;-71
2023/05/17 09:54:53;;;;;;;;;;;;;;;13.84;77.44;96092.13;10468477;28;1893;-71
2023/05/17 09:59:56;;;;;;;;;;;;;;;13.65;78.33;96103.66;10461749;28;1987;-72
2023/05/17 10:04:58;;;;;;;;;;;;;;;12.89;80.28;96104.25;10463518;28;1840;-74
2023/05/17 10:10:01;;;;;;;;;;;;;;;13.13;81.02;96093.56;10461440;28;1885;-72
2023/05/17 10:15:03;;;;;;;;;;;;;;;12.90;80.19;96097.75;10463493;28;2100;-72
2023/05/17 10:20:07;;;;;;;;;;;;;;;12.47;83.09;96097.50;10481692;28;2141;-73
2023/05/17 10:25:10;;;;;;;;;;;;;;;12.43;82.80;96107.19;10478408;28;1630;-73
2023/05/17 10:30:13;;;;;;;;;;;;;;;13.28;75.93;96089.94;10484712;28;1910;-77
2023/05/17 10:35:16;;;;;;;;;;;;;;;13.35;65.20;96088.53;10482374;28;1877;-72
2023/05/17 10:40:19;;;;;;;;;;;;;;;13.82;68.42;96083.53;10485726;28;4429;-71
2023/05/17 10:45:21;;;;;;;;;;;;;;;15.56;59.99;96078.13;10482059;28;1890;-72
2023/05/17 10:50:24;;;;;;;;;;;;;;;15.28;57.98;96081.88;10483951;28;1774;-71
2023/05/17 10:55:27;;;;;;;;;;;;;;;15.22;59.14;96089.28;10484429;28;2106;-73
2023/05/17 11:00:31;;;;;;;;;;;;;;;14.45;62.25;96086.03;10480648;28;1970;-72
2023/05/17 11:05:33;;;;;;;;;;;;;;;15.21;55.11;96079.53;10483241;28;2110;-72
2023/05/17 11:10:36;;;;;;;;;;;;;;;14.30;56.14;96073.50;10482098;28;2156;-73
2023/05/17 11:15:39;;;;;;;;;;;;;;;13.28;65.21;96077.25;10482606;28;1998;-73
2023/05/17 11:20:42;;;;;;;;;;;;;;;14.34;62.45;96061.00;10483849;28;1930;-70
2023/05/17 11:25:45;;;;;;;;;;;;;;;14.37;61.32;96082.03;10479100;28;1865;-72
2023/05/17 11:30:52;;;;;;;;;;;;;;;14.18;63.58;96071.19;10477966;28;2332;-71
2023/05/17 11:35:55;;;;;;;;;;;;;;;14.46;61.86;96061.41;10481254;28;1917;-73
2023/05/17 11:40:57;;;;;;;;;;;;;;;13.66;63.69;96063.94;10479786;28;4465;-72
2023/05/17 11:46:01;;;;;;;;;;;;;;;14.21;60.87;96076.03;10481705;28;1850;-72
2023/05/17 11:51:03;;;;;;;;;;;;;;;13.71;64.33;96075.50;10479553;28;2015;-71
2023/05/17 11:56:07;;;;;;;;;;;;;;;13.73;62.24;96077.91;10484821;28;1834;-73
2023/05/17 12:01:09;;;;;;;;;;;;;;;14.46;61.70;96074.94;10477430;28;2070;-72
2023/05/17 12:06:12;;;;;;;;;;;;;;;14.14;58.45;96069.38;10480034;28;2118;-72
2023/05/17 12:11:15;;;;;;;;;;;;;;;14.04;59.31;96071.09;10480686;28;1976;-72
2023/05/17 12:16:18;;;;;;;;;;;;;;;14.03;59.38;96063.28;10482443;28;1758;-75
2023/05/17 12:21:21;;;;;;;;;;;;;;;14.69;55.80;96069.75;10483530;28;1910;-72
2023/05/17 12:26:23;;;;;;;;;;;;;;;13.96;62.58;96077.13;10477586;28;1858;-72
2023/05/17 12:31:26;;;;;;;;;;;;;;;13.23;70.13;96072.72;10472882;28;1837;-73
2023/05/17 12:36:29;;;;;;;;;;;;;;;13.56;67.52;96080.28;10479282;28;1859;-72
2023/05/17 12:41:31;;;;;;;;;;;;;;;14.34;71.40;96074.53;10481711;28;4560;-72
2023/05/17 12:46:34;;;;;;;;;;;;;;;15.41;54.87;96071.09;10479016;28;1861;-74
2023/05/17 12:51:36;;;;;;;;;;;;;;;15.63;55.44;96066.94;10479182;28;1908;-74
2023/05/17 12:56:39;;;;;;;;;;;;;;;14.10;58.72;96073.75;10479641;28;1980;-74
2023/05/17 13:01:42;;;;;;;;;;;;;;;13.35;66.40;96082.31;10474379;28;1920;-72
2023/05/17 13:06:45;;;;;;;;;;;;;;;13.08;70.45;96069.31;10477572;28;2099;-71
2023/05/17 13:11:47;;;;;;;;;;;;;;;14.55;64.80;96064.28;10471643;28;1904;-71
2023/05/17 13:16:50;;;;;;;;;;;;;;;15.40;56.49;96057.84;10478123;28;1901;-71
2023/05/17 13:21:52;;;;;;;;;;;;;;;15.18;55.74;96071.19;10476985;28;2015;-73
2023/05/17 13:26:55;;;;;;;;;;;;;;;14.41;58.55;96069.56;10474736;28;1893;-72
2023/05/17 13:31:57;;;;;;;;;;;;;;;14.10;61.16;96076.44;10467613;28;1916;-71
2023/05/17 13:36:59;;;;;;;;;;;;;;;14.22;63.47;96076.84;10475758;28;2024;-71
2023/05/17 13:42:02;;;;;;;;;;;;;;;14.57;60.28;96073.72;10478227;28;4347;-73
2023/05/17 13:47:05;;;;;;;;;;;;;;;14.92;59.75;96066.19;10478541;28;1949;-72
2023/05/17 13:52:08;;;;;;;;;;;;;;;15.14;55.75;96068.25;10472912;28;1932;-73
2023/05/17 13:57:10;;;;;;;;;;;;;;;14.41;58.40;96072.28;10477011;28;1878;-73
2023/05/17 14:02:13;;;;;;;;;;;;;;;13.68;61.43;96068.00;10474858;28;2278;-72
2023/05/17 14:07:15;;;;;;;;;;;;;;;13.96;62.61;96068.22;10480816;28;1483;-73
2023/05/17 14:12:18;;;;;;;;;;;;;;;14.04;63.50;96073.78;10477065;28;1463;-73
2023/05/17 14:17:20;;;;;;;;;;;;;;;14.94;60.92;96063.97;10478971;28;1432;-71
2023/05/17 14:22:22;;;;;;;;;;;;;;;14.78;60.50;96062.59;10478834;28;1914;-72
2023/05/17 14:27:25;;;;;;;;;;;;;;;14.97;58.89;96060.69;10480275;28;1496;-72
2023/05/17 14:32:27;;;;;;;;;;;;;;;14.20;60.91;96057.41;10474309;28;1366;-71
2023/05/17 14:37:30;;;;;;;;;;;;;;;14.86;63.49;96048.41;10482793;28;1547;-73
2023/05/17 14:42:32;;;;;;;;;;;;;;;14.45;61.35;96054.38;10483088;28;4474;-71
2023/05/17 14:47:35;;;;;;;;;;;;;;;13.82;66.23;96062.72;10481032;28;1721;-72
2023/05/17 14:52:38;;;;;;;;;;;;;;;14.52;60.99;96071.09;10482338;28;1492;-73
2023/05/17 14:57:40;;;;;;;;;;;;;;;14.56;58.85;96055.84;10477849;28;2034;-72
2023/05/17 15:02:43;;;;;;;;;;;;;;;14.32;62.07;96063.22;10467923;28;1914;-73
2023/05/17 15:07:46;;;;;;;;;;;;;;;13.65;68.35;96067.75;10478610;28;1552;-71
2023/05/17 15:12:48;;;;;;;;;;;;;;;13.42;73.31;96072.00;10478117;28;1498;-71
2023/05/17 15:17:51;;;;;;;;;;;;;;;13.66;74.22;96074.75;10482286;28;1495;-72
2023/05/17 15:22:54;;;;;;;;;;;;;;;13.50;74.71;96068.72;10486330;28;1878;-73
2023/05/17 15:27:57;;;;;;;;;;;;;;;13.75;73.24;96067.66;10487509;28;1412;-77
2023/05/17 15:32:59;;;;;;;;;;;;;;;14.50;63.24;96073.25;10488128;28;1379;-71
2023/05/17 15:38:04;;;;;;;;;;;;;;;14.55;64.83;96075.91;10484563;28;1456;-71
2023/05/17 15:43:06;;;;;;;;;;;;;;;14.06;64.88;96068.94;10477924;28;4529;-71
2023/05/17 15:48:10;;;;;;;;;;;;;;;14.07;67.13;96080.53;10485521;28;1819;-73
2023/05/17 15:53:13;;;;;;;;;;;;;;;13.98;69.54;96079.53;10483405;28;2087;-71
2023/05/17 15:58:16;;;;;;;;;;;;;;;13.94;69.31;96078.53;10484452;28;1349;-72
2023/05/17 16:03:18;;;;;;;;;;;;;;;13.76;71.38;96088.97;10481636;28;1918;-72
2023/05/17 16:08:22;;;;;;;;;;;;;;;12.98;78.61;96076.41;10477395;28;1502;-72
2023/05/17 16:13:24;;;;;;;;;;;;;;;13.29;78.41;96080.75;10481718;28;1522;-72
2023/05/17 16:18:27;;;;;;;;;;;;;;;13.03;82.25;96082.81;10473907;28;1537;-71
2023/05/17 16:23:30;;;;;;;;;;;;;;;12.81;90.95;96086.75;10470680;28;1984;-71
2023/05/17 16:28:35;;;;;;;;;;;;;;;12.20;98.85;96089.78;10470947;28;1514;-72
2023/05/17 16:33:38;;;;;;;;;;;;;;;12.09;100.00;96096.31;10471227;28;1507;-73
2023/05/17 16:38:41;;;;;;;;;;;;;;;11.89;100.00;96108.72;10469492;28;1494;-72
2023/05/17 16:43:43;;;;;;;;;;;;;;;11.89;100.00;96111.41;10471159;28;4391;-71
2023/05/17 16:48:46;;;;;;;;;;;;;;;11.93;100.00;96135.94;10470333;28;2037;-72
2023/05/17 16:53:48;;;;;;;;;;;;;;;11.84;100.00;96111.47;10476723;28;1754;-73
2023/05/17 16:58:51;;;;;;;;;;;;;;;11.81;100.00;96125.44;10468205;28;1809;-71
2023/05/17 17:03:55;;;;;;;;;;;;;;;11.95;100.00;96127.56;10467908;28;1906;-72
2023/05/17 17:08:58;;;;;;;;;;;;;;;11.82;100.00;96124.38;10463382;28;1889;-73
2023/05/17 17:19:18;;;;;;;;;;;;;;;11.48;100.00;96124.13;10467797;28;1869;-71
2023/05/17 17:24:21;;;;;;;;;;;;;;;11.38;100.00;96130.31;10464634;28;1921;-73
2023/05/17 17:29:23;;;;;;;;;;;;;;;11.10;100.00;96139.72;10463149;28;1980;-72
2023/05/17 17:34:26;;;;;;;;;;;;;;;10.96;100.00;96156.66;10463551;28;1814;-75
2023/05/17 17:39:28;;;;;;;;;;;;;;;10.85;100.00;96155.03;10464675;28;4441;-72
2023/05/17 17:44:31;;;;;;;;;;;;;;;10.81;100.00;96157.41;10462708;28;2091;-71
2023/05/17 17:49:35;;;;;;;;;;;;;;;10.72;100.00;96154.44;10465962;28;1832;-71
2023/05/17 17:54:38;;;;;;;;;;;;;;;10.56;100.00;96158.19;10468644;28;1859;-73
2023/05/17 17:59:42;;;;;;;;;;;;;;;10.39;100.00;96174.50;10467819;28;1889;-75
2023/05/17 18:04:45;;;;;;;;;;;;;;;10.35;100.00;96170.72;10472353;28;1975;-74
2023/05/17 18:09:48;;;;;;;;;;;;;;;10.16;100.00;96174.88;10466966;28;1866;-74
2023/05/17 18:14:51;;;;;;;;;;;;;;;10.18;100.00;96175.44;10466157;28;1998;-72
2023/05/17 18:19:53;;;;;;;;;;;;;;;9.99;100.00;96180.44;10460564;28;1901;-74
2023/05/17 18:24:56;;;;;;;;;;;;;;;10.05;100.00;96184.75;10473510;28;1932;-73
2023/05/17 18:29:58;;;;;;;;;;;;;;;9.90;100.00;96190.03;10466377;28;1889;-73
2023/05/17 18:35:01;;;;;;;;;;;;;;;9.75;100.00;96193.44;10474709;28;1885;-74
2023/05/17 18:40:04;;;;;;;;;;;;;;;9.76;100.00;96211.16;10470100;28;4630;-74
2023/05/17 18:45:06;;;;;;;;;;;;;;;9.61;100.00;96205.69;10476811;28;1901;-74
2023/05/17 18:50:09;;;;;;;;;;;;;;;9.53;100.00;96212.31;10477830;28;1892;-75
2023/05/17 18:55:12;;;;;;;;;;;;;;;9.41;100.00;96212.47;10479794;28;1917;-73
2023/05/17 19:00:14;;;;;;;;;;;;;;;9.25;100.00;96212.63;10473905;28;1930;-73
2023/05/17 19:05:17;;;;;;;;;;;;;;;9.14;100.00;96219.75;10480530;28;1850;-72
2023/05/17 19:10:20;;;;;;;;;;;;;;;9.00;100.00;96224.72;10480268;28;1996;-75
2023/05/17 19:15:22;;;;;;;;;;;;;;;8.87;100.00;96227.78;10480229;28;1757;-71
2023/05/17 19:20:25;;;;;;;;;;;;;;;8.81;100.00;96232.28;10482463;28;1992;-73
2023/05/17 19:25:27;;;;;;;;;;;;;;;8.73;100.00;96229.25;10479783;28;1555;-73
2023/05/17 19:30:30;;;;;;;;;;;;;;;8.77;100.00;96244.56;10472284;28;1900;-75
2023/05/17 19:35:35;;;;;;;;;;;;;;;8.74;100.00;96249.63;10482253;28;1884;-72
2023/05/17 19:40:39;;;;;;;;;;;;;;;8.72;100.00;96246.38;10476062;28;4370;-72
2023/05/17 19:45:42;;;;;;;;;;;;;;;8.67;100.00;96252.50;10478461;28;2003;-74
2023/05/17 19:50:44;;;;;;;;;;;;;;;8.56;100.00;96250.75;10482247;28;1993;-73
2023/05/17 19:55:46;;;;;;;;;;;;;;;8.52;100.00;96244.25;10482446;28;2083;-74
2023/05/17 20:00:49;;;;;;;;;;;;;;;8.41;100.00;96254.03;10478063;28;1993;-73
2023/05/17 20:05:51;;;;;;;;;;;;;;;8.35;100.00;96258.50;10475100;28;1849;-73
2023/05/17 20:10:53;;;;;;;;;;;;;;;8.25;100.00;96244.13;10482785;28;1952;-74
2023/05/17 20:15:56;;;;;;;;;;;;;;;8.20;100.00;96254.78;10477972;28;1889;-71
2023/05/17 20:20:58;;;;;;;;;;;;;;;8.12;100.00;96256.81;10476597;28;1921;-72
2023/05/17 20:26:01;;;;;;;;;;;;;;;8.09;100.00;96254.63;10474081;28;1873;-73
2023/05/17 20:31:03;;;;;;;;;;;;;;;7.95;100.00;96258.72;10471161;28;1861;-72
2023/05/17 20:36:06;;;;;;;;;;;;;;;7.91;100.00;96270.97;10482917;28;2081;-74
2023/05/17 20:41:09;;;;;;;;;;;;;;;7.94;100.00;96262.44;10480641;28;1971;-73
2023/05/17 20:46:12;;;;;;;;;;;;;;;8.00;100.00;96263.31;10473305;28;1933;-72
2023/05/17 20:51:16;;;;;;;;;;;;;;;7.95;100.00;96260.56;10475656;28;1889;-73
2023/05/17 20:56:18;;;;;;;;;;;;;;;7.96;100.00;96257.66;10479111;28;1838;-73
2023/05/17 21:01:21;;;;;;;;;;;;;;;7.92;100.00;96261.06;10473227;28;1914;-74
2023/05/17 21:06:24;;;;;;;;;;;;;;;8.02;100.00;96264.72;10477556;28;1900;-71
2023/05/17 21:11:27;;;;;;;;;;;;;;;8.05;100.00;96272.25;10476469;28;2159;-73
2023/05/17 21:16:30;;;;;;;;;;;;;;;8.06;100.00;96268.50;10476021;28;1857;-73
2023/05/17 21:21:32;;;;;;;;;;;;;;;8.04;100.00;96265.28;10472327;28;1944;-73
2023/05/17 21:26:35;;;;;;;;;;;;;;;7.96;100.00;96263.00;10475760;28;1862;-73
2023/05/17 21:31:42;;;;;;;;;;;;;;;7.77;100.00;96269.69;10474501;28;2164;-73
2023/05/17 21:36:44;;;;;;;;;;;;;;;7.64;100.00;96270.00;10470844;28;1902;-73
2023/05/17 21:41:46;;;;;;;;;;;;;;;7.59;100.00;96263.50;10472873;28;4473;-74
2023/05/17 21:46:49;;;;;;;;;;;;;;;7.53;100.00;96259.13;10479235;28;1862;-73
2023/05/17 21:51:51;;;;;;;;;;;;;;;7.35;100.00;96269.22;10474422;28;1944;-73
2023/05/17 21:56:54;;;;;;;;;;;;;;;7.37;100.00;96270.59;10479915;28;1904;-73
2023/05/17 22:01:56;;;;;;;;;;;;;;;7.34;100.00;96272.97;10473435;28;1914;-71
2023/05/17 22:06:58;;;;;;;;;;;;;;;7.38;100.00;96266.91;10473014;28;1885;-73
2023/05/17 22:12:03;;;;;;;;;;;;;;;7.46;100.00;96269.16;10477469;28;1944;-74
2023/05/17 22:17:07;;;;;;;;;;;;;;;7.64;100.00;96254.75;10471428;28;2108;-73
2023/05/17 22:22:10;;;;;;;;;;;;;;;7.87;100.00;96253.75;10484634;28;1981;-73
2023/05/17 22:27:12;;;;;;;;;;;;;;;7.87;100.00;96248.41;10479731;28;1893;-72
2023/05/17 22:32:15;;;;;;;;;;;;;;;7.91;100.00;96244.19;10477481;28;1837;-73
2023/05/17 22:37:21;;;;;;;;;;;;;;;7.86;100.00;96238.75;10481750;28;1877;-73
2023/05/17 22:42:23;;;;;;;;;;;;;;;7.97;100.00;96237.84;10483815;28;4453;-73
2023/05/17 22:47:26;;;;;;;;;;;;;;;7.90;100.00;96231.88;10482826;28;1904;-73
2023/05/17 22:52:28;;;;;;;;;;;;;;;7.94;100.00;96232.19;10482397;28;1905;-74
2023/05/17 22:57:30;;;;;;;;;;;;;;;7.88;100.00;96228.59;10475124;28;1838;-73
2023/05/17 23:02:33;;;;;;;;;;;;;;;7.72;100.00;96219.56;10470783;28;1969;-73
2023/05/17 23:07:37;;;;;;;;;;;;;;;7.55;100.00;96218.75;10477375;28;2059;-73
2023/05/17 23:12:39;;;;;;;;;;;;;;;7.32;100.00;96212.50;10475784;28;1865;-73
2023/05/17 23:17:42;;;;;;;;;;;;;;;7.10;100.00;96216.09;10478856;28;1969;-73
2023/05/17 23:22:46;;;;;;;;;;;;;;;7.02;100.00;96215.44;10473576;28;2318;-73
2023/05/17 23:27:49;;;;;;;;;;;;;;;6.83;100.00;96207.88;10468170;28;1924;-72
2023/05/17 23:32:51;;;;;;;;;;;;;;;6.75;100.00;96209.88;10467484;28;1927;-72
2023/05/17 23:37:54;;;;;;;;;;;;;;;6.61;100.00;96207.72;10475551;28;1877;-72
2023/05/17 23:42:56;;;;;;;;;;;;;;;6.64;100.00;96209.94;10478113;28;4656;-72
2023/05/17 23:47:59;;;;;;;;;;;;;;;6.53;100.00;96213.44;10476257;28;2096;-72
2023/05/17 23:53:02;;;;;;;;;;;;;;;6.47;100.00;96212.53;10476411;28;1947;-72
2023/05/17 23:58:04;;;;;;;;;;;;;;;6.37;100.00;96204.31;10475267;28;1920;-73
